Time;durP1;ratioP1;P1;durP2;ratioP2;P2;SDS_P1;SDS_P2;PMS_P1;PMS_P2;Temp;Humidity;BMP_temperature;BMP_pressure;BME280_temperature;BME280_humidity;BME280_pressure;Samples;Min_cycle;Max_cycle;Signal;HPM_P1;HPM_P2
2022/12/20 00:01:31;;;;;;;3.40;2.13;;;11.30;99.90;;;-144.05;65.18;125687.94;5037044;28;20113;-78
2022/12/20 00:04:02;;;;;;;5.28;2.40;;;11.40;99.90;;;-144.05;64.56;125687.94;5037138;28;20040;-79
2022/12/20 00:06:28;;;;;;;3.90;2.10;;;11.40;99.90;;;-144.05;64.58;125687.94;5036943;28;20060;-78
2022/12/20 00:08:59;;;;;;;3.63;1.88;;;11.50;99.90;;;-144.05;64.31;125687.94;5036599;28;20033;-79
2022/12/20 00:11:28;;;;;;;5.45;2.10;;;11.50;99.90;;;-144.05;64.04;125687.94;5036692;28;20032;-79
2022/12/20 00:13:55;;;;;;;4.57;2.00;;;11.50;99.90;;;-144.05;63.85;125687.94;5036183;28;20105;-78
2022/12/20 00:16:26;;;;;;;5.75;2.10;;;11.50;99.90;;;-144.05;63.86;125687.94;5036286;28;20032;-78
2022/12/20 00:19:02;;;;;;;2.70;1.60;;;11.60;99.90;;;-144.05;63.65;125687.94;5036356;28;20021;-78
2022/12/20 00:21:32;;;;;;;5.47;2.13;;;11.60;99.90;;;-144.05;63.57;125687.94;5019519;28;20039;-77
2022/12/20 00:24:00;;;;;;;1.88;1.35;;;11.70;99.90;;;-144.05;63.40;125687.94;5019698;28;20101;-76
2022/12/20 00:26:30;;;;;;;4.38;1.90;;;11.70;99.90;;;-144.05;63.39;125687.94;5051729;28;20112;-78
2022/12/20 00:28:58;;;;;;;4.53;1.75;;;11.70;99.90;;;-144.05;63.09;125687.94;5039473;28;20025;-78
2022/12/20 00:31:28;;;;;;;2.85;1.80;;;11.70;99.90;;;-144.05;62.88;125687.94;5037532;28;20552;-79
2022/12/20 00:33:58;;;;;;;3.53;2.00;;;11.80;99.90;;;-144.05;63.27;125687.94;5036572;28;20037;-78
2022/12/20 00:36:27;;;;;;;2.50;1.38;;;11.80;99.90;;;-144.05;62.92;125687.94;5018268;28;20038;-79
2022/12/20 00:38:57;;;;;;;3.05;1.60;;;11.80;99.90;;;-144.05;62.79;125687.94;5017757;28;20132;-78
2022/12/20 00:41:31;;;;;;;4.68;1.83;;;11.90;99.90;;;-144.05;62.73;125687.94;5035842;28;20041;-78
2022/12/20 00:43:58;;;;;;;1.60;1.20;;;11.90;99.90;;;-144.05;62.72;125687.94;5037514;28;20500;-78
2022/12/20 00:46:24;;;;;;;4.03;1.80;;;11.90;99.90;;;-144.05;62.46;125687.94;5043827;28;20030;-79
2022/12/20 00:48:51;;;;;;;2.65;1.40;;;12.00;99.90;;;-144.05;61.89;125687.94;5036203;28;20026;-79
2022/12/20 00:51:23;;;;;;;3.30;1.80;;;12.00;99.90;;;-144.05;61.75;125687.94;5035634;28;20033;-78
2022/12/20 00:53:49;;;;;;;2.92;1.58;;;11.90;99.90;;;-144.05;61.86;125687.94;5034434;28;20378;-78
2022/12/20 00:56:17;;;;;;;5.38;1.77;;;11.90;99.90;;;-144.05;61.62;125687.94;5017601;28;20036;-78
2022/12/20 00:58:44;;;;;;;3.42;1.55;;;12.00;99.90;;;-144.05;61.81;125687.94;5035006;28;20041;-78
2022/12/20 01:01:29;;;;;;;6.10;2.30;;;12.00;99.90;;;-144.05;61.58;125687.94;5033466;28;20030;-78
2022/12/20 01:03:55;;;;;;;4.20;1.77;;;12.00;99.90;;;-144.05;61.61;125687.94;5034900;28;20037;-78
2022/12/20 01:06:24;;;;;;;4.70;1.80;;;12.00;99.90;;;-144.05;61.77;125687.94;5035373;28;20491;-81
2022/12/20 01:08:52;;;;;;;2.75;1.80;;;11.90;99.90;;;-144.05;61.53;125687.94;5035496;28;20434;-79
2022/12/20 01:11:25;;;;;;;4.60;1.80;;;11.90;99.90;;;-144.05;61.94;125687.94;5034727;28;20036;-77
2022/12/20 01:13:55;;;;;;;5.32;2.10;;;12.00;99.90;;;-144.05;61.90;125687.94;5017093;28;20032;-78
2022/12/20 01:16:39;;;;;;;5.07;1.65;;;12.00;99.90;;;-144.05;61.54;125687.94;5034850;28;20041;-78
2022/12/20 01:19:08;;;;;;;5.18;1.98;;;12.00;99.90;;;-144.05;61.89;125687.94;5035139;28;20032;-78
2022/12/20 01:21:34;;;;;;;5.03;1.60;;;12.00;99.90;;;-144.05;62.27;125687.94;5034849;28;20036;-77
2022/12/20 01:24:00;;;;;;;2.88;1.73;;;12.00;99.90;;;-144.05;62.18;125687.94;5034790;28;20040;-77
2022/12/20 01:26:29;;;;;;;3.03;1.45;;;12.00;99.90;;;-144.05;62.46;125687.94;5016775;28;20369;-78
2022/12/20 01:28:59;;;;;;;3.63;1.90;;;12.00;99.90;;;-144.05;62.48;125687.94;5034599;28;20112;-78
2022/12/20 01:31:27;;;;;;;4.07;1.70;;;12.00;99.90;;;-144.05;62.96;125687.94;5034965;28;20017;-78
2022/12/20 01:33:53;;;;;;;6.38;2.00;;;11.90;99.90;;;-144.05;63.48;125687.94;5034964;28;20025;-79
2022/12/20 01:36:26;;;;;;;2.35;1.67;;;11.80;99.90;;;-144.05;63.94;125687.94;5035287;28;20030;-79
2022/12/20 01:39:15;;;;;;;3.70;1.63;;;11.70;99.90;;;-144.05;64.62;125687.94;5017193;28;20121;-79
2022/12/20 01:41:44;;;;;;;3.53;1.52;;;11.60;99.90;;;-144.05;64.46;125687.94;5035185;28;20036;-79
2022/12/20 01:44:16;;;;;;;4.10;1.75;;;11.60;99.90;;;-144.05;64.33;125687.94;5017063;28;20033;-77
2022/12/20 01:46:45;;;;;;;1.88;1.50;;;11.60;99.90;;;-144.05;64.01;125687.94;5017210;28;20033;-78
2022/12/20 01:49:31;;;;;;;4.05;1.63;;;11.70;99.90;;;-144.05;63.87;125687.94;5035008;28;20440;-78
2022/12/20 01:52:35;;;;;;;3.13;1.60;;;11.60;99.90;;;-144.05;63.91;125687.94;5034664;28;20026;-79
2022/12/20 01:55:25;;;;;;;3.08;1.85;;;11.70;99.90;;;-144.05;64.78;125687.94;5029770;28;20615;-78
2022/12/20 01:58:05;;;;;;;2.47;1.70;;;11.60;99.90;;;-144.05;64.69;125687.94;5034301;28;20562;-78
2022/12/20 02:00:31;;;;;;;3.95;1.88;;;11.60;99.90;;;-144.05;64.51;125687.94;5034659;28;20034;-77
2022/12/20 02:03:05;;;;;;;4.05;1.70;;;11.60;99.90;;;-144.05;64.64;125687.94;5034265;28;20079;-78
2022/12/20 02:05:46;;;;;;;3.80;1.63;;;11.60;99.90;;;-144.05;64.55;125687.94;5032984;28;20045;-79
2022/12/20 02:08:18;;;;;;;4.15;1.80;;;11.70;99.90;;;-144.05;64.58;125687.94;5034591;28;20405;-79
2022/12/20 02:11:28;;;;;;;2.60;1.80;;;11.70;99.90;;;-144.05;64.77;125687.94;5034372;28;20404;-79
2022/12/20 02:14:29;;;;;;;4.18;2.30;;;11.70;99.90;;;-144.05;64.84;125687.94;5034447;28;20025;-79
2022/12/20 02:17:18;;;;;;;2.80;1.52;;;11.60;99.90;;;-144.05;64.69;125687.94;5034356;28;20026;-77
2022/12/20 02:20:29;;;;;;;4.22;1.70;;;11.60;99.90;;;-144.05;65.19;125687.94;5033867;28;20063;-77
2022/12/20 02:23:45;;;;;;;5.20;1.80;;;11.60;99.90;;;-144.05;65.36;125687.94;5033114;28;20055;-78
2022/12/20 02:26:50;;;;;;;1.90;1.42;;;11.60;99.90;;;-144.05;65.48;125687.94;5034129;28;20467;-78
2022/12/20 02:29:37;;;;;;;2.63;1.92;;;11.40;99.90;;;-144.05;65.46;125687.94;5016186;28;20089;-79
2022/12/20 02:32:25;;;;;;;3.17;1.65;;;11.40;99.90;;;-144.05;66.33;125687.94;5033965;28;20026;-78
2022/12/20 02:34:52;;;;;;;3.67;1.85;;;11.40;99.90;;;-144.05;65.80;125687.94;5033814;28;20029;-76
2022/12/20 02:37:18;;;;;;;4.03;2.17;;;11.30;99.90;;;-144.05;65.91;125687.94;5033946;28;20037;-77
2022/12/20 02:39:46;;;;;;;4.72;2.13;;;11.30;99.90;;;-144.05;66.47;125687.94;5015709;28;20036;-79
2022/12/20 02:42:20;;;;;;;3.40;1.95;;;11.20;99.90;;;-144.05;67.12;125687.94;5033738;28;20029;-78
2022/12/20 02:45:14;;;;;;;2.58;2.08;;;11.20;99.90;;;-144.05;66.42;125687.94;5033794;28;20025;-80
2022/12/20 02:48:10;;;;;;;2.80;2.08;;;11.10;99.90;;;-144.05;66.50;125687.94;5033744;28;20030;-78
2022/12/20 02:50:45;;;;;;;6.03;2.22;;;11.10;99.90;;;-144.05;66.46;125687.94;5028263;28;20072;-78
2022/12/20 02:53:15;;;;;;;3.00;2.00;;;11.10;99.90;;;-144.05;66.63;125687.94;5033772;28;20527;-79
2022/12/20 02:56:08;;;;;;;3.97;2.15;;;11.10;99.90;;;-144.05;66.46;125687.94;5016227;28;20036;-78
2022/12/20 02:59:03;;;;;;;3.15;2.17;;;11.20;99.90;;;-144.05;65.94;125687.94;5018779;28;20439;-79
2022/12/20 03:01:46;;;;;;;6.05;2.22;;;11.30;99.90;;;-144.05;65.75;125687.94;5038585;28;20500;-79
2022/12/20 03:04:15;;;;;;;2.63;1.90;;;11.30;99.90;;;-144.05;65.94;125687.94;5034729;28;20045;-79
2022/12/20 03:06:59;;;;;;;5.32;2.17;;;11.30;99.90;;;-144.05;65.83;125687.94;5033062;28;20552;-79
2022/12/20 03:09:27;;;;;;;5.18;2.15;;;11.30;99.90;;;-144.05;65.30;125687.94;5018053;28;20445;-78
2022/12/20 03:11:53;;;;;;;4.97;2.30;;;11.30;99.90;;;-144.05;65.61;125687.94;5034243;28;20025;-77
2022/12/20 03:14:20;;;;;;;5.35;2.10;;;11.30;99.90;;;-144.05;65.95;125687.94;5015548;28;20048;-79
2022/12/20 03:16:46;;;;;;;5.70;2.25;;;11.30;99.90;;;-144.05;66.44;125687.94;5046005;28;20048;-79
2022/12/20 03:19:12;;;;;;;5.00;2.20;;;11.30;99.90;;;-144.05;66.36;125687.94;5035606;28;20492;-80
2022/12/20 03:21:37;;;;;;;3.40;2.08;;;11.30;99.90;;;-144.05;66.49;125687.94;5039232;28;20082;-80
2022/12/20 03:24:04;;;;;;;4.20;2.15;;;11.30;99.90;;;-144.05;66.22;125687.94;5017430;28;20507;-78
2022/12/20 03:26:29;;;;;;;4.63;1.73;;;11.30;99.90;;;-144.05;66.30;125687.94;5014958;28;20052;-78
2022/12/20 03:28:55;;;;;;;3.67;2.10;;;11.30;99.90;;;-144.05;66.46;125687.94;5032824;28;20030;-78
2022/12/20 03:31:21;;;;;;;4.53;1.88;;;11.30;99.90;;;-144.05;66.43;125687.94;5032664;28;20164;-78
2022/12/20 03:33:47;;;;;;;6.70;2.20;;;11.30;99.90;;;-144.05;66.66;125687.94;5032697;28;20025;-78
2022/12/20 03:36:13;;;;;;;5.40;2.20;;;11.30;99.90;;;-144.05;66.95;125687.94;5032357;28;20049;-78
2022/12/20 03:38:39;;;;;;;3.95;2.30;;;11.30;99.90;;;-144.05;67.78;125687.94;5014265;28;20029;-78
2022/12/20 03:41:05;;;;;;;4.15;2.20;;;11.20;99.90;;;-144.05;68.45;125687.94;5032295;28;20030;-78
2022/12/20 03:43:31;;;;;;;5.15;2.10;;;11.20;99.90;;;-144.05;68.81;125687.94;5032903;28;20100;-78
2022/12/20 03:45:57;;;;;;;5.75;1.90;;;11.20;99.90;;;-144.05;69.03;125687.94;5015222;28;20128;-78
2022/12/20 03:48:23;;;;;;;5.43;2.65;;;11.10;99.90;;;-144.05;69.78;125687.94;5033239;28;20049;-79
2022/12/20 03:50:49;;;;;;;10.30;3.13;;;11.10;99.90;;;-144.05;69.39;125687.94;5015035;28;20501;-78
2022/12/20 03:53:15;;;;;;;5.05;2.60;;;11.10;99.90;;;-144.05;69.68;125687.94;5033277;28;20100;-80
2022/12/20 03:55:41;;;;;;;3.85;2.10;;;11.00;99.90;;;-144.05;69.88;125687.94;5033223;28;20107;-79
2022/12/20 03:58:07;;;;;;;4.40;2.75;;;11.10;99.90;;;-144.05;69.89;125687.94;5033327;28;20056;-78
2022/12/20 04:00:33;;;;;;;4.15;2.30;;;11.00;99.90;;;-144.05;69.80;125687.94;5033355;28;20064;-78
2022/12/20 04:02:59;;;;;;;3.50;2.00;;;11.00;99.90;;;-144.05;71.05;125687.94;5033569;28;20406;-78
2022/12/20 04:05:25;;;;;;;3.67;2.17;;;10.90;99.90;;;-144.05;70.42;125687.94;5015853;28;20026;-79
2022/12/20 04:07:50;;;;;;;3.67;2.08;;;10.90;99.90;;;-144.05;71.06;125687.94;5033818;28;20053;-78
2022/12/20 04:10:16;;;;;;;3.88;2.38;;;10.90;99.90;;;-144.05;71.75;125687.94;5033746;28;20550;-77
2022/12/20 04:12:42;;;;;;;4.55;2.10;;;10.80;99.90;;;-144.05;71.92;125687.94;5033580;28;20033;-78
2022/12/20 04:15:09;;;;;;;4.18;2.40;;;10.70;99.90;;;-144.05;71.60;125687.94;5033388;28;20094;-78
2022/12/20 04:17:34;;;;;;;3.28;2.00;;;10.80;99.90;;;-144.05;71.80;125687.94;5015648;28;20113;-79
2022/12/20 04:20:17;;;;;;;4.18;2.40;;;10.80;99.90;;;-144.05;71.75;125687.94;5033218;28;20068;-78
2022/12/20 04:22:48;;;;;;;5.10;1.98;;;10.80;99.90;;;-144.05;71.60;125687.94;5033068;28;20104;-77
2022/12/20 04:25:18;;;;;;;4.60;2.22;;;10.80;99.90;;;-144.05;71.79;125687.94;5033424;28;20029;-77
2022/12/20 04:27:45;;;;;;;3.85;2.38;;;10.70;99.90;;;-144.05;71.52;125687.94;5014922;28;20104;-78
2022/12/20 04:30:12;;;;;;;5.25;2.08;;;10.90;99.90;;;-144.05;71.20;125687.94;5033062;28;20033;-78
2022/12/20 04:32:38;;;;;;;4.18;2.30;;;10.90;99.90;;;-144.05;71.32;125687.94;5033253;28;20022;-79
2022/12/20 04:35:05;;;;;;;5.30;2.58;;;10.90;99.90;;;-144.05;71.37;125687.94;5033598;28;20033;-78
2022/12/20 04:37:31;;;;;;;4.43;2.10;;;11.00;99.90;;;-144.05;71.67;125687.94;5032959;28;20443;-77
2022/12/20 04:39:57;;;;;;;7.25;2.33;;;10.90;99.90;;;-144.05;72.02;125687.94;5033384;28;20037;-78
2022/12/20 04:42:24;;;;;;;3.88;1.95;;;10.90;99.90;;;-144.05;72.98;125687.94;5033591;28;20057;-78
2022/12/20 04:44:50;;;;;;;4.28;2.30;;;10.80;99.90;;;-144.05;74.09;125687.94;5032789;28;20025;-78
2022/12/20 04:47:16;;;;;;;4.40;2.17;;;10.80;99.90;;;-144.05;74.55;125687.94;5035259;28;20119;-78
2022/12/20 04:49:42;;;;;;;3.00;2.25;;;10.80;99.90;;;-144.05;74.68;125687.94;5035843;28;20060;-79
2022/12/20 04:54:52;;;;;;;6.50;2.70;;;10.70;99.90;;;-144.05;74.44;125687.94;5038067;28;20032;-78
2022/12/20 04:57:18;;;;;;;5.90;2.30;;;10.70;99.90;;;-144.05;74.71;125687.94;5037468;28;20104;-78
2022/12/20 04:59:44;;;;;;;5.32;2.85;;;10.60;99.90;;;-144.05;74.57;125687.94;5037522;28;20048;-77
2022/12/20 05:02:10;;;;;;;5.10;2.47;;;10.70;99.90;;;-144.05;74.83;125687.94;5037087;28;20087;-77
2022/12/20 05:04:35;;;;;;;5.07;2.42;;;10.70;99.90;;;-144.05;74.72;125687.94;5037619;28;20033;-78
2022/12/20 05:07:02;;;;;;;5.53;2.35;;;10.70;99.90;;;-144.05;75.01;125687.94;5019608;28;20072;-79
2022/12/20 05:09:27;;;;;;;4.88;2.40;;;10.70;99.90;;;-144.05;75.15;125687.94;5036719;28;20032;-77
2022/12/20 05:11:53;;;;;;;4.70;2.10;;;10.80;99.90;;;-144.05;75.52;125687.94;5037973;28;20037;-78
2022/12/20 05:14:19;;;;;;;3.05;1.90;;;10.70;99.90;;;-144.05;76.15;125687.94;5019360;28;20091;-77
2022/12/20 05:16:45;;;;;;;5.97;2.15;;;10.70;99.90;;;-144.05;76.80;125687.94;5019285;28;20065;-77
2022/12/20 05:19:11;;;;;;;4.18;2.20;;;10.60;99.90;;;-144.05;77.28;125687.94;5037080;28;20044;-78
2022/12/20 05:27:16;;;;;;;7.75;2.67;;;10.50;99.90;;;-144.05;77.67;125687.94;4999328;28;20157;-78
2022/12/20 05:29:42;;;;;;;5.07;2.50;;;10.50;99.90;;;-144.05;77.81;125687.94;5036220;28;20026;-77
2022/12/20 05:32:08;;;;;;;6.25;2.75;;;10.40;99.90;;;-144.05;78.06;125687.94;5037041;28;20030;-78
2022/12/20 05:34:33;;;;;;;4.80;2.40;;;10.40;99.90;;;-144.05;77.68;125687.94;5037305;28;20041;-78
2022/12/20 05:36:59;;;;;;;5.38;2.88;;;10.40;99.90;;;-144.05;77.73;125687.94;5019525;28;20030;-78
2022/12/20 05:39:26;;;;;;;5.53;2.60;;;10.30;99.90;;;-144.05;77.86;125687.94;5037123;28;20029;-77
2022/12/20 05:41:52;;;;;;;8.38;2.80;;;10.40;99.90;;;-144.05;77.19;125687.94;5037642;28;20404;-77
2022/12/20 05:44:19;;;;;;;6.90;3.10;;;10.40;99.90;;;-144.05;77.38;125687.94;5044292;28;20033;-77
2022/12/20 05:46:45;;;;;;;5.78;2.70;;;10.30;99.90;;;-144.05;76.88;125687.94;5029877;28;20323;-77
2022/12/20 05:49:10;;;;;;;4.32;2.38;;;10.40;99.90;;;-144.05;77.16;125687.94;5051475;28;20177;-77
2022/12/20 05:51:36;;;;;;;5.50;2.58;;;10.40;99.90;;;-144.05;77.52;125687.94;5052187;28;20041;-77
2022/12/20 05:54:02;;;;;;;5.15;2.67;;;10.30;99.90;;;-144.05;77.60;125687.94;5057603;28;20033;-76
2022/12/20 05:56:28;;;;;;;5.53;2.78;;;10.30;99.90;;;-144.05;77.40;125687.94;5056921;28;20258;-77
2022/12/20 05:58:54;;;;;;;7.85;2.70;;;10.30;99.90;;;-144.05;76.77;125687.94;5049877;28;20060;-78
2022/12/20 06:01:20;;;;;;;6.68;3.35;;;10.30;99.90;;;-144.05;76.88;125687.94;5030500;28;20037;-77
2022/12/20 06:03:45;;;;;;;5.35;2.80;;;10.40;99.90;;;-144.05;76.71;125687.94;5049593;28;20041;-77
2022/12/20 06:06:11;;;;;;;7.80;3.10;;;10.30;99.90;;;-144.05;76.35;125687.94;5031497;28;20044;-76
2022/12/20 06:08:37;;;;;;;4.13;2.45;;;10.40;99.90;;;-144.05;76.02;125687.94;5049058;28;20052;-78
2022/12/20 06:11:04;;;;;;;5.72;2.97;;;10.40;99.90;;;-144.05;75.89;125687.94;5032168;28;20451;-76
2022/12/20 06:13:30;;;;;;;6.00;2.55;;;10.50;99.90;;;-144.05;74.91;125687.94;5037821;28;20030;-78
2022/12/20 06:15:56;;;;;;;8.98;2.70;;;10.50;99.90;;;-144.05;75.75;125687.94;5036806;28;20025;-78
2022/12/20 06:18:21;;;;;;;4.63;2.58;;;10.50;99.90;;;-144.05;74.63;125687.94;5037298;28;20327;-78
2022/12/20 06:20:53;;;;;;;4.35;2.88;;;10.50;99.90;;;-144.05;74.65;125687.94;5019426;28;20036;-77
2022/12/20 06:23:19;;;;;;;4.45;2.60;;;10.50;99.90;;;-144.05;74.25;125687.94;5037484;28;20037;-78
2022/12/20 06:25:46;;;;;;;5.43;3.00;;;10.60;99.90;;;-144.05;73.99;125687.94;5019452;28;20061;-78
2022/12/20 06:28:12;;;;;;;4.47;2.22;;;10.60;99.90;;;-144.05;73.92;125687.94;5036954;28;20022;-77
2022/12/20 06:30:38;;;;;;;3.85;2.50;;;10.60;99.90;;;-144.05;73.01;125687.94;5036687;28;20033;-78
2022/12/20 06:33:03;;;;;;;6.90;2.80;;;10.70;99.90;;;-144.05;72.66;125687.94;5018949;28;20124;-78
2022/12/20 06:35:30;;;;;;;4.15;2.28;;;10.70;99.90;;;-144.05;72.68;125687.94;5036924;28;20029;-77
2022/12/20 06:37:56;;;;;;;3.83;2.30;;;10.70;99.90;;;-144.05;72.38;125687.94;5037543;28;20052;-78
2022/12/20 06:40:23;;;;;;;2.97;2.25;;;10.70;99.90;;;-144.05;72.31;125687.94;5039212;28;20026;-77
2022/12/20 06:42:49;;;;;;;6.38;2.97;;;10.70;99.90;;;-144.05;71.91;125687.94;5039505;28;20030;-78
2022/12/20 06:45:15;;;;;;;6.40;2.50;;;10.70;99.90;;;-144.05;71.95;125687.94;5021789;28;20164;-77
2022/12/20 06:47:41;;;;;;;5.32;2.40;;;10.80;99.90;;;-144.05;71.43;125687.94;5039862;28;20037;-78
2022/12/20 06:50:07;;;;;;;5.72;2.80;;;10.90;99.90;;;-144.05;71.33;125687.94;5022098;28;20032;-78
2022/12/20 06:52:33;;;;;;;5.63;2.35;;;10.80;99.90;;;-144.05;71.21;125687.94;5039397;28;20033;-78
2022/12/20 06:54:59;;;;;;;7.65;2.63;;;11.00;99.90;;;-144.05;71.19;125687.94;5039225;28;20080;-78
2022/12/20 06:57:25;;;;;;;4.80;2.33;;;10.90;99.90;;;-144.05;70.82;125687.94;5021023;28;20029;-77
2022/12/20 06:59:51;;;;;;;4.75;2.28;;;10.90;99.90;;;-144.05;70.84;125687.94;5038682;28;20484;-77
2022/12/20 07:02:17;;;;;;;5.93;2.70;;;10.90;99.90;;;-144.05;70.46;125687.94;5019138;28;20137;-77
2022/12/20 07:04:43;;;;;;;3.53;2.20;;;10.90;99.90;;;-144.05;70.41;125687.94;5037717;28;20132;-76
2022/12/20 07:07:11;;;;;;;6.22;2.33;;;11.00;99.90;;;-144.05;70.10;125687.94;5036679;28;20041;-78
2022/12/20 07:09:40;;;;;;;3.85;2.22;;;11.00;99.90;;;-144.05;69.93;125687.94;5035572;28;20034;-78
2022/12/20 07:12:08;;;;;;;6.85;2.58;;;11.00;99.90;;;-144.05;70.36;125687.94;5036250;28;20104;-77
2022/12/20 07:14:34;;;;;;;7.10;2.30;;;10.90;99.90;;;-144.05;70.10;125687.94;5035018;28;20400;-77
2022/12/20 07:16:59;;;;;;;5.57;2.15;;;10.90;99.90;;;-144.05;69.90;125687.94;5038439;28;20029;-79
2022/12/20 07:19:25;;;;;;;3.63;2.20;;;11.00;99.90;;;-144.05;69.40;125687.94;5021164;28;20026;-78
2022/12/20 07:21:51;;;;;;;4.45;2.42;;;11.10;99.90;;;-144.05;69.40;125687.94;5035989;28;20044;-78
2022/12/20 07:24:17;;;;;;;5.90;2.80;;;11.10;99.90;;;-144.05;69.15;125687.94;5033998;28;20041;-78
2022/12/20 07:26:44;;;;;;;4.10;2.15;;;11.10;99.90;;;-144.05;69.60;125687.94;5034387;28;20029;-78
2022/12/20 07:29:13;;;;;;;5.72;2.20;;;11.10;99.90;;;-144.05;69.00;125687.94;5033446;28;20052;-78
2022/12/20 07:31:39;;;;;;;4.55;1.88;;;11.10;99.90;;;-144.05;68.71;125687.94;5015788;28;20030;-76
2022/12/20 07:34:04;;;;;;;3.08;1.75;;;11.10;99.90;;;-144.05;69.02;125687.94;5033868;28;20490;-77
2022/12/20 07:36:30;;;;;;;3.67;2.20;;;11.10;99.90;;;-144.05;69.01;125687.94;5034562;28;20029;-78
2022/12/20 07:38:57;;;;;;;5.30;2.58;;;11.20;99.90;;;-144.05;69.09;125687.94;5034199;28;20035;-77
2022/12/20 07:41:24;;;;;;;4.95;2.13;;;11.30;99.90;;;-144.05;68.50;125687.94;5034762;28;20048;-77
2022/12/20 07:43:50;;;;;;;4.45;2.15;;;11.30;99.90;;;-144.05;68.47;125687.94;5033601;28;20030;-77
2022/12/20 07:46:17;;;;;;;8.57;2.05;;;11.20;99.90;;;-144.05;68.66;125687.94;5015823;28;20087;-78
2022/12/20 07:48:43;;;;;;;3.47;1.90;;;11.20;99.90;;;-144.05;68.78;125687.94;5034063;28;20025;-78
2022/12/20 07:51:52;;;;;;;7.95;2.08;;;11.30;99.90;;;-144.05;68.34;125687.94;5033744;28;20026;-77
2022/12/20 07:54:37;;;;;;;6.47;2.63;;;11.20;99.90;;;-144.05;68.10;125687.94;4968749;28;20037;-77
2022/12/20 07:57:14;;;;;;;2.83;1.83;;;11.30;99.90;;;-144.05;68.30;125687.94;5034137;28;20045;-79
2022/12/20 07:59:53;;;;;;;4.43;2.50;;;11.40;99.90;;;-144.05;68.38;125687.94;5033506;28;20040;-77
2022/12/20 08:02:40;;;;;;;4.45;2.20;;;11.30;99.90;;;-144.05;67.81;125687.94;5014993;28;20037;-77
2022/12/20 08:05:09;;;;;;;4.22;2.28;;;11.30;99.90;;;-144.05;67.29;125687.94;5033652;28;20025;-77
2022/12/20 08:07:40;;;;;;;3.80;2.20;;;11.30;99.90;;;-144.05;67.29;125687.94;5033091;28;20034;-77
2022/12/20 08:10:12;;;;;;;5.30;1.95;;;11.30;99.90;;;-144.05;67.00;125687.94;5032939;28;20396;-77
2022/12/20 08:12:42;;;;;;;4.15;1.77;;;11.40;99.90;;;-144.05;66.83;125687.94;5032733;28;20477;-79
2022/12/20 08:15:09;;;;;;;3.38;1.73;;;11.50;99.90;;;-144.05;66.46;125687.94;5014805;28;20125;-78
2022/12/20 08:17:35;;;;;;;3.72;1.92;;;11.50;99.90;;;-144.05;66.24;125687.94;5032714;28;20127;-78
2022/12/20 08:20:01;;;;;;;4.88;1.70;;;11.60;99.90;;;-144.05;65.85;125687.94;5032103;28;20068;-78
2022/12/20 08:22:27;;;;;;;5.43;2.08;;;11.50;99.90;;;-144.05;66.20;125687.94;5035280;28;20110;-77
2022/12/20 08:24:52;;;;;;;3.45;2.35;;;11.50;99.90;;;-144.05;66.17;125687.94;5036835;28;20079;-78
2022/12/20 08:27:18;;;;;;;6.05;1.83;;;11.50;99.90;;;-144.05;65.99;125687.94;5036791;28;20033;-77
2022/12/20 08:29:44;;;;;;;3.08;1.95;;;11.50;99.90;;;-144.05;66.21;125687.94;5037582;28;20025;-80
2022/12/20 08:32:11;;;;;;;4.57;2.17;;;11.60;99.90;;;-144.05;66.38;125687.94;5037506;28;20045;-77
2022/12/20 08:34:37;;;;;;;2.78;1.92;;;11.60;99.90;;;-144.05;66.12;125687.94;5039633;28;20091;-77
2022/12/20 08:37:03;;;;;;;3.40;1.60;;;11.60;99.90;;;-144.05;66.71;125687.94;5036964;28;20401;-78
2022/12/20 08:39:29;;;;;;;4.38;2.03;;;11.50;99.90;;;-144.05;66.20;125687.94;5037111;28;20040;-79
2022/12/20 08:41:55;;;;;;;3.78;1.83;;;11.50;99.90;;;-144.05;66.62;125687.94;5036705;28;20394;-79
2022/12/20 08:44:21;;;;;;;3.38;1.80;;;11.40;99.90;;;-144.05;65.97;125687.94;5036700;28;20025;-78
2022/12/20 08:46:46;;;;;;;4.00;2.40;;;11.50;99.90;;;-144.05;66.21;125687.94;5036028;28;20118;-78
2022/12/20 08:49:12;;;;;;;2.40;2.08;;;11.50;99.90;;;-144.05;65.96;125687.94;5018058;28;20032;-78
2022/12/20 08:51:38;;;;;;;2.53;1.60;;;11.50;99.90;;;-144.05;65.55;125687.94;5036136;28;20029;-78
2022/12/20 08:54:04;;;;;;;3.15;1.58;;;11.50;99.90;;;-144.05;65.58;125687.94;5037024;28;20053;-78
2022/12/20 08:56:30;;;;;;;4.55;1.67;;;11.60;99.90;;;-144.05;65.62;125687.94;5036959;28;20064;-78
2022/12/20 08:58:56;;;;;;;6.70;1.90;;;11.60;99.90;;;-144.05;66.15;125687.94;5035961;28;20048;-78
2022/12/20 09:01:22;;;;;;;3.55;1.73;;;11.60;99.90;;;-144.05;65.58;125687.94;5036146;28;20040;-78
2022/12/20 09:03:48;;;;;;;4.82;1.88;;;11.80;99.90;;;-144.05;64.31;125687.94;5036358;28;20029;-79
2022/12/20 09:06:19;;;;;;;4.50;2.30;;;12.00;99.90;;;-144.05;64.65;125687.94;5018725;28;20033;-78
2022/12/20 09:08:47;;;;;;;4.63;1.60;;;11.90;99.90;;;-144.05;64.61;125687.94;5019770;28;20041;-78
2022/12/20 09:11:26;;;;;;;6.28;1.92;;;11.90;99.90;;;-144.05;65.11;125687.94;5037381;28;20033;-78
2022/12/20 09:13:56;;;;;;;3.58;1.75;;;11.90;99.90;;;-144.05;64.70;125687.94;5036424;28;20025;-78
2022/12/20 09:16:30;;;;;;;6.80;1.77;;;11.90;99.90;;;-144.05;64.06;125687.94;5018162;28;20030;-78
2022/12/20 09:18:59;;;;;;;4.30;1.80;;;11.90;99.90;;;-144.05;64.13;125687.94;5036634;28;20035;-78
2022/12/20 09:21:25;;;;;;;3.30;1.42;;;12.00;99.90;;;-144.05;63.99;125687.94;5018520;28;20025;-77
2022/12/20 09:23:55;;;;;;;4.70;2.58;;;12.00;99.90;;;-144.05;63.90;125687.94;5017992;28;20037;-78
2022/12/20 09:26:23;;;;;;;4.00;1.65;;;12.10;99.90;;;-144.05;63.69;125687.94;5035995;28;20105;-78
2022/12/20 09:28:50;;;;;;;7.40;1.48;;;12.00;99.90;;;-144.05;64.27;125687.94;5036598;28;20040;-78
2022/12/20 09:31:24;;;;;;;3.40;1.60;;;12.00;99.90;;;-144.05;64.06;125687.94;5035753;28;20025;-78
2022/12/20 09:33:56;;;;;;;6.43;1.95;;;12.00;99.90;;;-144.05;63.74;125687.94;5035984;28;20104;-76
2022/12/20 09:36:26;;;;;;;4.13;1.80;;;12.10;99.90;;;-144.05;63.86;125687.94;5018616;28;20377;-78
2022/12/20 09:38:54;;;;;;;4.82;1.42;;;12.00;99.90;;;-144.05;64.62;125687.94;5018969;28;20025;-77
2022/12/20 09:41:38;;;;;;;4.30;1.98;;;12.00;99.90;;;-144.05;63.84;125687.94;5036475;28;20437;-78
2022/12/20 09:44:35;;;;;;;4.45;1.40;;;12.00;99.90;;;-144.05;64.14;125687.94;5036024;28;20496;-78
2022/12/20 09:47:16;;;;;;;2.53;1.80;;;12.10;99.90;;;-144.05;63.87;125687.94;5018630;28;20029;-78
2022/12/20 09:49:52;;;;;;;6.47;1.65;;;12.00;99.90;;;-144.05;64.37;125687.94;5017584;28;20493;-79
2022/12/20 09:53:14;;;;;;;3.90;1.63;;;12.00;99.90;;;-144.05;64.36;125687.94;5035976;28;20085;-78
2022/12/20 09:55:55;;;;;;;3.85;1.60;;;12.00;99.90;;;-144.05;65.06;125687.94;5035861;28;20515;-78
2022/12/20 09:58:55;;;;;;;7.68;1.70;;;11.90;99.90;;;-144.05;64.86;125687.94;5035380;28;20083;-78
2022/12/20 10:01:25;;;;;;;3.35;1.83;;;11.90;99.90;;;-144.05;64.21;125687.94;5035204;28;20083;-77
2022/12/20 10:03:54;;;;;;;4.15;1.75;;;11.90;99.90;;;-144.05;64.35;125687.94;5035786;28;20120;-78
2022/12/20 10:07:12;;;;;;;3.42;1.80;;;12.00;99.90;;;-144.05;64.21;125687.94;5035551;28;20068;-78
2022/12/20 10:09:55;;;;;;;2.80;1.48;;;12.00;99.90;;;-144.05;64.45;125687.94;5017415;28;20033;-78
2022/12/20 10:13:21;;;;;;;2.95;1.52;;;12.10;99.90;;;-144.05;63.86;125687.94;5035434;28;20485;-78
2022/12/20 10:16:33;;;;;;;3.83;1.60;;;12.20;99.90;;;-144.05;63.80;125687.94;5035396;28;20472;-78
2022/12/20 10:19:37;;;;;;;1.98;1.42;;;12.20;99.90;;;-144.05;63.79;125687.94;5034830;28;20040;-75
2022/12/20 10:22:31;;;;;;;5.22;1.80;;;12.20;99.90;;;-144.05;63.56;125687.94;4934398;28;20049;-75
2022/12/20 10:25:33;;;;;;;4.60;2.17;;;12.30;99.90;;;-144.05;63.55;125687.94;5036405;28;20108;-79
2022/12/20 10:28:14;;;;;;;2.97;1.30;;;12.30;99.90;;;-144.05;63.44;125687.94;4977369;28;20033;-77